Time;durP1;ratioP1;P1;durP2;ratioP2;P2;SDS_P1;SDS_P2;PMS_P1;PMS_P2;Temp;Humidity;BMP_temperature;BMP_pressure;BME280_temperature;BME280_humidity;BME280_pressure;Samples;Min_cycle;Max_cycle;Signal;HPM_P1;HPM_P2
2023/06/15 00:00:09;;;;;;;1.42;1.33;;;19.20;95.40;;;;;;5032126;28;20081;-32
2023/06/15 00:02:35;;;;;;;1.92;1.63;;;19.10;95.60;;;;;;5032472;28;20489;-37
2023/06/15 00:05:00;;;;;;;1.77;1.50;;;19.10;95.70;;;;;;5032736;28;20050;-34
2023/06/15 00:07:26;;;;;;;4.28;1.92;;;19.10;95.80;;;;;;5032432;28;20018;-33
2023/06/15 00:09:52;;;;;;;2.13;1.70;;;19.00;96.00;;;;;;5032644;28;20500;-34
2023/06/15 00:12:18;;;;;;;2.97;2.10;;;18.90;96.20;;;;;;5030377;28;20109;-35
2023/06/15 00:14:43;;;;;;;4.35;1.48;;;18.90;96.30;;;;;;5032346;28;20021;-32
2023/06/15 00:17:11;;;;;;;2.72;1.98;;;18.90;96.50;;;;;;5032321;28;20454;-33
2023/06/15 00:19:37;;;;;;;2.55;1.95;;;18.90;96.60;;;;;;5030011;28;20497;-31
2023/06/15 00:22:04;;;;;;;3.95;1.60;;;18.90;96.80;;;;;;5030105;28;20032;-33
2023/06/15 00:24:30;;;;;;;1.55;1.45;;;18.90;96.90;;;;;;5032226;28;20109;-35
2023/06/15 00:26:55;;;;;;;2.53;1.88;;;18.90;97.20;;;;;;5032263;28;20052;-32
2023/06/15 00:29:21;;;;;;;4.07;1.83;;;18.90;97.10;;;;;;5032203;28;20030;-31
2023/06/15 00:31:46;;;;;;;5.35;2.17;;;18.90;97.20;;;;;;5030860;28;20359;-33
2023/06/15 00:34:12;;;;;;;2.58;2.08;;;18.90;97.30;;;;;;5020949;28;20063;-35
2023/06/15 00:36:38;;;;;;;1.48;1.38;;;18.90;97.40;;;;;;5011359;28;20022;-34
2023/06/15 00:39:04;;;;;;;3.70;1.90;;;18.90;97.50;;;;;;5012532;28;20030;-34
2023/06/15 00:41:30;;;;;;;2.50;1.80;;;18.80;97.60;;;;;;5015361;28;20025;-49
2023/06/15 00:43:55;;;;;;;2.13;1.77;;;18.80;97.90;;;;;;5020060;28;20525;-32
2023/06/15 00:46:23;;;;;;;2.60;1.77;;;18.70;98.10;;;;;;5035794;28;20020;-35
2023/06/15 00:48:51;;;;;;;3.47;1.83;;;18.70;98.30;;;;;;5022729;28;20446;-35
2023/06/15 00:51:17;;;;;;;3.42;2.42;;;18.70;98.50;;;;;;5025884;28;20486;-33
2023/06/15 00:53:44;;;;;;;2.83;1.85;;;18.70;98.80;;;;;;5029343;28;20049;-34
2023/06/15 00:56:09;;;;;;;4.53;2.20;;;18.70;98.90;;;;;;5015851;28;20433;-31
2023/06/15 00:58:36;;;;;;;2.03;1.67;;;18.70;98.70;;;;;;5015535;28;20129;-32
2023/06/15 01:01:03;;;;;;;8.60;1.95;;;18.70;98.80;;;;;;5019981;28;20026;-30
2023/06/15 01:03:30;;;;;;;2.93;1.40;;;18.70;98.70;;;;;;5025741;28;20029;-36
2023/06/15 01:05:58;;;;;;;4.95;1.92;;;18.70;98.80;;;;;;5015079;28;20010;-31
2023/06/15 01:08:26;;;;;;;3.00;2.15;;;18.60;99.20;;;;;;5019130;28;20029;-31
2023/06/15 01:10:53;;;;;;;3.80;1.80;;;18.50;99.40;;;;;;5031944;28;20065;-36
2023/06/15 01:13:20;;;;;;;3.53;1.65;;;18.40;99.70;;;;;;5017943;28;20038;-33
2023/06/15 01:15:55;;;;;;;2.47;2.13;;;18.50;99.60;;;;;;5028494;28;20044;-31
2023/06/15 01:18:24;;;;;;;3.88;2.55;;;18.40;99.80;;;;;;5012013;28;20022;-32
2023/06/15 01:20:53;;;;;;;3.38;2.17;;;18.40;99.90;;;;;;5021336;28;20429;-34
2023/06/15 01:23:43;;;;;;;2.30;1.85;;;18.40;99.90;;;;;;5033651;28;20045;-32
2023/06/15 01:26:12;;;;;;;2.13;1.90;;;18.40;99.90;;;;;;5035001;28;20026;-31
2023/06/15 01:28:45;;;;;;;2.33;1.80;;;18.40;99.90;;;;;;5034945;28;20079;-32
2023/06/15 01:31:12;;;;;;;2.50;1.80;;;18.40;99.90;;;;;;5033705;28;20034;-32
2023/06/15 01:33:45;;;;;;;2.10;1.75;;;18.40;99.90;;;;;;5028138;28;20022;-31
2023/06/15 01:36:10;;;;;;;5.80;1.83;;;18.40;99.90;;;;;;5019072;28;20474;-31
2023/06/15 01:38:36;;;;;;;3.22;2.20;;;18.30;99.90;;;;;;5034059;28;20079;-42
2023/06/15 01:41:03;;;;;;;2.08;1.65;;;18.30;99.90;;;;;;5034783;28;20052;-38
2023/06/15 01:43:32;;;;;;;2.70;2.20;;;18.20;99.90;;;;;;5032151;28;20025;-49
2023/06/15 01:45:58;;;;;;;3.25;2.30;;;18.20;99.90;;;;;;5034645;28;20021;-39
2023/06/15 01:48:25;;;;;;;3.28;2.08;;;18.20;99.90;;;;;;5025730;28;20037;-39
2023/06/15 01:50:52;;;;;;;2.50;2.00;;;18.20;99.90;;;;;;5014679;28;20096;-39
2023/06/15 01:53:18;;;;;;;3.90;2.55;;;18.20;99.90;;;;;;5012797;28;20034;-39
2023/06/15 01:55:44;;;;;;;2.20;1.92;;;18.10;99.90;;;;;;5014858;28;20092;-39
2023/06/15 01:58:15;;;;;;;2.85;2.45;;;18.00;99.90;;;;;;5015494;28;20386;-41
2023/06/15 02:00:41;;;;;;;2.65;2.22;;;18.00;99.90;;;;;;5034704;28;20440;-41
2023/06/15 02:03:06;;;;;;;2.50;2.30;;;18.00;99.90;;;;;;5034666;28;20484;-33
2023/06/15 02:05:38;;;;;;;3.90;2.08;;;17.90;99.90;;;;;;5034206;28;20022;-34
2023/06/15 02:08:10;;;;;;;3.30;2.30;;;17.90;99.90;;;;;;5032862;28;20052;-32
2023/06/15 02:10:37;;;;;;;6.07;2.08;;;18.00;99.90;;;;;;5034134;28;20493;-35
2023/06/15 02:13:03;;;;;;;3.78;2.72;;;17.90;99.90;;;;;;5034118;28;20025;-33
2023/06/15 02:15:29;;;;;;;4.53;2.92;;;18.00;99.90;;;;;;5032636;28;20104;-35
2023/06/15 02:18:01;;;;;;;4.78;2.55;;;18.00;99.90;;;;;;5033164;28;20025;-34
2023/06/15 02:20:28;;;;;;;4.28;2.53;;;17.90;99.90;;;;;;5033987;28;20363;-34
2023/06/15 02:22:57;;;;;;;5.88;2.38;;;17.90;99.90;;;;;;5034013;28;20420;-36
2023/06/15 02:25:32;;;;;;;2.10;1.90;;;17.80;99.90;;;;;;5034033;28;20070;-31
2023/06/15 02:27:58;;;;;;;3.35;2.03;;;17.90;99.90;;;;;;5033869;28;20025;-41
2023/06/15 02:30:27;;;;;;;6.07;2.80;;;17.80;99.90;;;;;;5033969;28;20024;-33
2023/06/15 02:32:53;;;;;;;4.43;2.72;;;17.90;99.90;;;;;;5031193;28;20094;-33
2023/06/15 02:35:19;;;;;;;8.85;2.50;;;17.80;99.90;;;;;;5013905;28;20026;-43
2023/06/15 02:37:46;;;;;;;5.03;2.30;;;17.80;99.90;;;;;;5013852;28;20152;-34
2023/06/15 02:40:12;;;;;;;3.38;2.00;;;17.80;99.90;;;;;;5013796;28;20530;-31
2023/06/15 02:42:38;;;;;;;2.72;2.47;;;17.80;99.90;;;;;;5012602;28;20018;-30
2023/06/15 02:45:06;;;;;;;5.80;2.28;;;17.80;99.90;;;;;;5014056;28;20030;-33
2023/06/15 02:47:33;;;;;;;2.33;2.05;;;17.80;99.90;;;;;;5012758;28;20488;-32
2023/06/15 02:49:59;;;;;;;3.03;2.70;;;17.70;99.90;;;;;;5027560;28;20075;-46
2023/06/15 02:52:30;;;;;;;3.05;2.00;;;17.70;99.90;;;;;;5024955;28;20057;-30
2023/06/15 02:54:59;;;;;;;3.60;2.45;;;17.60;99.90;;;;;;5019437;28;20494;-37
2023/06/15 02:57:24;;;;;;;2.42;2.15;;;17.60;99.90;;;;;;5033323;28;20064;-34
2023/06/15 02:59:50;;;;;;;2.70;2.15;;;17.60;99.90;;;;;;5028791;28;20072;-30
2023/06/15 03:02:16;;;;;;;2.33;2.10;;;17.60;99.90;;;;;;5032491;28;20446;-32
2023/06/15 03:04:46;;;;;;;7.15;2.40;;;17.50;99.90;;;;;;5033059;28;20028;-31
2023/06/15 03:07:16;;;;;;;2.90;2.30;;;17.50;99.90;;;;;;5032638;28;20500;-33
2023/06/15 03:09:48;;;;;;;3.38;2.30;;;17.40;99.90;;;;;;5031820;28;20025;-36
2023/06/15 03:12:15;;;;;;;5.47;2.42;;;17.40;99.90;;;;;;5033386;28;20048;-31
2023/06/15 03:14:44;;;;;;;4.65;2.58;;;17.40;99.90;;;;;;5031903;28;20036;-32
2023/06/15 03:17:13;;;;;;;4.20;2.25;;;17.40;99.90;;;;;;5033010;28;20048;-30
2023/06/15 03:19:39;;;;;;;3.00;2.15;;;17.40;99.90;;;;;;5033170;28;20502;-30
2023/06/15 03:22:07;;;;;;;3.27;2.47;;;17.30;99.90;;;;;;5028495;28;20108;-34
2023/06/15 03:24:33;;;;;;;;;;;17.40;99.90;;;;;;5015565;28;20022;-32
2023/06/15 03:27:01;;;;;;;2.60;2.40;;;17.40;99.90;;;;;;5013154;28;20332;-31
2023/06/15 03:29:27;;;;;;;3.63;2.80;;;17.40;99.90;;;;;;5012988;28;20033;-31
2023/06/15 03:31:53;;;;;;;4.22;2.42;;;17.30;99.90;;;;;;5013042;28;20022;-34
2023/06/15 03:34:19;;;;;;;3.03;2.75;;;17.30;99.90;;;;;;5012989;28;20501;-36
2023/06/15 03:36:45;;;;;;;3.35;2.50;;;17.20;99.90;;;;;;5026226;28;20028;-36
2023/06/15 03:39:11;;;;;;;8.70;2.70;;;17.20;99.90;;;;;;5032584;28;20033;-30
2023/06/15 03:41:37;;;;;;;10.10;2.47;;;17.10;99.90;;;;;;5032492;28;20367;-40
2023/06/15 03:44:03;;;;;;;8.85;3.15;;;17.20;99.90;;;;;;5011985;28;20024;-35
2023/06/15 03:46:29;;;;;;;2.72;2.08;;;17.20;99.90;;;;;;5013169;28;20037;-34
2023/06/15 03:48:55;;;;;;;5.95;2.92;;;17.20;99.90;;;;;;5013059;28;20462;-33
2023/06/15 03:51:20;;;;;;;7.47;3.15;;;17.10;99.90;;;;;;5012814;28;20060;-30
2023/06/15 03:53:46;;;;;;;4.35;2.90;;;17.10;99.90;;;;;;5013995;28;20026;-37
2023/06/15 03:56:12;;;;;;;3.95;2.83;;;17.10;99.90;;;;;;5029428;28;20486;-32
2023/06/15 03:58:38;;;;;;;4.00;2.22;;;17.00;99.90;;;;;;5032143;28;20103;-31
2023/06/15 04:01:07;;;;;;;5.35;3.08;;;17.00;99.90;;;;;;5032181;28;20462;-33
2023/06/15 04:03:36;;;;;;;3.75;2.55;;;17.00;99.90;;;;;;5031322;28;20033;-31
2023/06/15 04:06:06;;;;;;;8.02;3.25;;;17.00;99.90;;;;;;5019422;28;20030;-35
2023/06/15 04:08:32;;;;;;;5.05;2.78;;;16.90;99.90;;;;;;5012640;28;20037;-31
2023/06/15 04:10:58;;;;;;;5.85;2.42;;;16.90;99.90;;;;;;5012658;28;20038;-33
2023/06/15 04:13:24;;;;;;;4.47;2.85;;;16.90;99.90;;;;;;5012551;28;20026;-38
2023/06/15 04:15:50;;;;;;;4.32;2.15;;;16.90;99.90;;;;;;5014856;28;20026;-32
2023/06/15 04:18:16;;;;;;;3.88;2.88;;;16.80;99.90;;;;;;5016682;28;20021;-32
2023/06/15 04:20:43;;;;;;;18.90;3.53;;;16.80;99.90;;;;;;5023082;28;20026;-35
2023/06/15 04:23:10;;;;;;;3.75;3.00;;;16.80;99.90;;;;;;5033687;28;20385;-38
2023/06/15 04:25:37;;;;;;;5.13;3.78;;;16.80;99.90;;;;;;5016352;28;20098;-34
2023/06/15 04:28:06;;;;;;;4.15;2.72;;;16.80;99.90;;;;;;5014956;28;20188;-31
2023/06/15 04:30:32;;;;;;;4.32;2.60;;;16.80;99.90;;;;;;5015641;28;20360;-31
2023/06/15 04:32:59;;;;;;;7.10;2.92;;;16.80;99.90;;;;;;5016802;28;20474;-37
2023/06/15 04:35:28;;;;;;;6.82;2.22;;;16.80;99.90;;;;;;5029368;28;20485;-35
2023/06/15 04:38:00;;;;;;;5.72;2.80;;;16.80;99.90;;;;;;5035861;28;20025;-36
2023/06/15 04:40:26;;;;;;;6.25;3.30;;;16.90;99.90;;;;;;5027066;28;20025;-32
2023/06/15 04:42:57;;;;;;;4.25;2.95;;;17.00;99.90;;;;;;5035802;28;20021;-30
2023/06/15 04:45:24;;;;;;;3.70;2.65;;;17.10;99.90;;;;;;5033950;28;20022;-36
2023/06/15 04:47:50;;;;;;;7.63;3.63;;;17.00;99.90;;;;;;5018847;28;20021;-35
2023/06/15 04:50:16;;;;;;;5.88;3.22;;;17.00;99.90;;;;;;5035650;28;20076;-30
2023/06/15 04:52:41;;;;;;;3.08;2.78;;;17.10;99.90;;;;;;5035640;28;20484;-33
2023/06/15 04:55:08;;;;;;;4.00;2.97;;;17.10;99.90;;;;;;5033115;28;20025;-37
2023/06/15 04:57:33;;;;;;;5.90;3.33;;;17.10;99.90;;;;;;5035537;28;20061;-46
2023/06/15 05:00:00;;;;;;;3.28;2.47;;;17.10;99.90;;;;;;5030061;28;20061;-33
2023/06/15 05:02:25;;;;;;;12.23;3.13;;;17.10;99.90;;;;;;5015332;28;20080;-33
2023/06/15 05:04:51;;;;;;;4.60;2.80;;;17.20;99.90;;;;;;5015904;28;20394;-31
2023/06/15 05:07:17;;;;;;;4.78;2.72;;;17.40;99.90;;;;;;5035505;28;20025;-32
2023/06/15 05:09:43;;;;;;;5.63;3.65;;;17.50;99.90;;;;;;5035407;28;20451;-35
2023/06/15 05:12:09;;;;;;;4.95;3.30;;;17.60;99.90;;;;;;5033999;28;20481;-34
2023/06/15 05:14:34;;;;;;;4.45;3.00;;;17.70;99.90;;;;;;5034541;28;20059;-35
2023/06/15 05:17:07;;;;;;;2.80;2.38;;;17.80;99.90;;;;;;5029962;28;20541;-32
2023/06/15 05:19:33;;;;;;;3.72;2.80;;;17.80;99.90;;;;;;5035155;28;20092;-34
2023/06/15 05:22:01;;;;;;;12.70;3.42;;;17.90;99.90;;;;;;5035025;28;20389;-32
2023/06/15 05:24:27;;;;;;;8.07;3.47;;;18.00;99.90;;;;;;5014601;28;20026;-35
2023/06/15 05:26:53;;;;;;;3.65;2.58;;;18.00;99.90;;;;;;5012803;28;20025;-37
2023/06/15 05:29:19;;;;;;;5.30;3.03;;;18.10;99.90;;;;;;5025775;28;20451;-36
2023/06/15 05:31:45;;;;;;;5.00;2.97;;;18.20;99.90;;;;;;5034837;28;20083;-36
2023/06/15 05:34:10;;;;;;;7.10;2.72;;;18.20;99.90;;;;;;5023826;28;20049;-35
2023/06/15 05:36:36;;;;;;;3.80;3.03;;;18.30;99.90;;;;;;5014547;28;20029;-34
2023/06/15 05:39:03;;;;;;;3.47;2.45;;;18.40;99.90;;;;;;5012891;28;20026;-31
2023/06/15 05:41:29;;;;;;;3.13;2.83;;;18.50;99.90;;;;;;5014831;28;20084;-31
2023/06/15 05:43:55;;;;;;;7.68;3.60;;;18.50;99.90;;;;;;5015063;28;20446;-37
2023/06/15 05:46:21;;;;;;;7.78;3.50;;;18.50;99.90;;;;;;5015090;28;20049;-31
2023/06/15 05:48:46;;;;;;;3.85;3.00;;;18.50;99.90;;;;;;5014790;28;20029;-34
2023/06/15 05:51:12;;;;;;;11.73;3.63;;;18.50;99.90;;;;;;5014786;28;20046;-35
2023/06/15 05:53:38;;;;;;;4.40;2.70;;;18.60;99.90;;;;;;5012731;28;20049;-42
2023/06/15 05:56:03;;;;;;;5.80;3.47;;;18.70;99.90;;;;;;4997548;28;20037;-32
2023/06/15 05:58:29;;;;;;;7.68;3.55;;;18.70;99.90;;;;;;5014577;28;20439;-33
2023/06/15 06:00:55;;;;;;;9.65;4.03;;;18.90;99.90;;;;;;5014462;28;20048;-37
2023/06/15 06:03:21;;;;;;;5.68;3.15;;;19.10;99.90;;;;;;5013367;28;20033;-39
2023/06/15 06:05:46;;;;;;;4.47;2.83;;;19.20;99.90;;;;;;5029604;28;20034;-36
2023/06/15 06:08:12;;;;;;;7.28;2.83;;;19.30;99.90;;;;;;5014454;28;20057;-35
2023/06/15 06:10:38;;;;;;;8.38;3.20;;;19.50;99.90;;;;;;5013206;28;20033;-36
2023/06/15 06:13:03;;;;;;;4.20;3.15;;;20.10;99.90;;;;;;5014427;28;20076;-33
2023/06/15 06:15:29;;;;;;;6.60;3.45;;;21.30;99.90;;;;;;5014587;28;20371;-34
2023/06/15 06:17:55;;;;;;;5.45;2.30;;;21.80;99.90;;;;;;5014224;28;20037;-31
2023/06/15 06:20:21;;;;;;;9.23;3.15;;;21.80;99.90;;;;;;5018265;28;20505;-38
2023/06/15 06:22:46;;;;;;;4.90;3.15;;;21.80;99.90;;;;;;5012053;28;20471;-35
2023/06/15 06:25:12;;;;;;;3.35;2.53;;;22.00;99.90;;;;;;5012327;28;20105;-32
2023/06/15 06:27:38;;;;;;;4.20;3.13;;;22.20;99.90;;;;;;5013356;28;20036;-32
2023/06/15 06:30:04;;;;;;;3.90;2.40;;;22.70;99.90;;;;;;5012960;28;20033;-33
2023/06/15 06:32:30;;;;;;;3.70;2.73;;;23.70;99.90;;;;;;5012514;28;20501;-35
2023/06/15 06:34:56;;;;;;;8.52;2.78;;;24.40;98.80;;;;;;5012647;28;20281;-37
2023/06/15 06:37:22;;;;;;;8.48;2.88;;;24.40;98.10;;;;;;5012591;28;20120;-34
2023/06/15 06:39:48;;;;;;;8.50;3.22;;;24.10;97.70;;;;;;5012431;28;20068;-34
2023/06/15 06:42:13;;;;;;;9.45;2.92;;;23.80;97.80;;;;;;5012045;28;20483;-32
2023/06/15 06:44:40;;;;;;;4.10;2.90;;;23.40;97.90;;;;;;5013067;28;20026;-34
2023/06/15 06:47:05;;;;;;;7.95;2.40;;;23.40;98.30;;;;;;5012762;28;20491;-32
2023/06/15 06:49:31;;;;;;;4.78;2.75;;;23.90;98.10;;;;;;5012617;28;20093;-34
2023/06/15 06:51:57;;;;;;;9.98;2.92;;;24.00;97.80;;;;;;5012333;28;20030;-34
2023/06/15 06:54:22;;;;;;;8.15;3.50;;;23.50;97.90;;;;;;5013585;28;20038;-34
2023/06/15 06:56:48;;;;;;;4.10;2.83;;;23.50;98.40;;;;;;5013551;28;20081;-37
2023/06/15 06:59:14;;;;;;;6.97;3.15;;;23.70;98.20;;;;;;5010137;28;20368;-32
2023/06/15 07:01:39;;;;;;;5.35;2.58;;;23.60;97.90;;;;;;5012366;28;20045;-32
2023/06/15 07:04:05;;;;;;;4.40;2.70;;;23.50;98.40;;;;;;5013719;28;20029;-32
2023/06/15 07:06:32;;;;;;;2.88;2.58;;;23.80;98.40;;;;;;5013421;28;20168;-33
2023/06/15 07:08:58;;;;;;;4.13;3.25;;;24.50;97.90;;;;;;5013456;28;20033;-32
2023/06/15 07:11:23;;;;;;;4.72;3.03;;;25.30;97.00;;;;;;5013234;28;20390;-39
2023/06/15 07:13:49;;;;;;;7.75;2.70;;;26.50;95.80;;;;;;5013234;28;20045;-33
2023/06/15 07:16:15;;;;;;;3.65;2.60;;;27.60;95.20;;;;;;5013227;28;20033;-35
2023/06/15 07:18:40;;;;;;;8.13;3.05;;;28.70;94.10;;;;;;5012364;28;20034;-32
2023/06/15 07:21:06;;;;;;;4.25;2.30;;;28.80;92.90;;;;;;5013112;28;20034;-32
2023/06/15 07:23:32;;;;;;;2.65;2.45;;;28.30;93.20;;;;;;5013127;28;20025;-37
2023/06/15 07:25:58;;;;;;;3.60;2.22;;;28.20;93.20;;;;;;5013142;28;20032;-31
2023/06/15 07:28:23;;;;;;;8.60;2.13;;;28.40;93.20;;;;;;5013136;28;20116;-38
2023/06/15 07:30:49;;;;;;;13.15;2.95;;;28.60;92.80;;;;;;5013008;28;20459;-35
2023/06/15 07:33:16;;;;;;;3.35;2.65;;;28.40;93.30;;;;;;5011751;28;20022;-34
2023/06/15 07:35:42;;;;;;;3.92;2.92;;;28.80;93.10;;;;;;5012359;28;20022;-37
2023/06/15 07:38:07;;;;;;;6.80;3.22;;;28.90;92.80;;;;;;5011685;28;20026;-31
2023/06/15 07:40:33;;;;;;;5.25;3.00;;;28.40;93.20;;;;;;5012993;28;20383;-36
2023/06/15 07:42:59;;;;;;;4.55;2.83;;;28.00;93.80;;;;;;5012855;28;20022;-31
2023/06/15 07:45:25;;;;;;;3.90;2.80;;;27.80;94.00;;;;;;5012926;28;20498;-34
2023/06/15 07:47:51;;;;;;;10.07;3.42;;;27.70;93.60;;;;;;5012892;28;20033;-34
2023/06/15 07:50:16;;;;;;;5.82;3.47;;;27.60;93.90;;;;;;5014258;28;20117;-35
2023/06/15 07:52:42;;;;;;;10.77;2.15;;;27.00;94.40;;;;;;5016289;28;20404;-36
2023/06/15 07:55:08;;;;;;;8.75;4.35;;;26.40;94.90;;;;;;5016902;28;20029;-33
2023/06/15 07:57:35;;;;;;;7.28;3.40;;;25.80;95.20;;;;;;5017066;28;20030;-36
2023/06/15 08:00:05;;;;;;;5.60;3.05;;;25.60;95.30;;;;;;5017023;28;20034;-32
2023/06/15 08:02:31;;;;;;;3.58;2.60;;;25.70;95.20;;;;;;5016681;28;20045;-31
2023/06/15 08:04:56;;;;;;;6.50;3.50;;;25.60;95.20;;;;;;5016730;28;20030;-36
2023/06/15 08:07:22;;;;;;;7.72;2.55;;;25.40;95.10;;;;;;5016738;28;20018;-35
2023/06/15 08:09:48;;;;;;;5.47;2.70;;;25.10;95.70;;;;;;5015929;28;20081;-37
2023/06/15 08:12:14;;;;;;;5.82;2.88;;;25.10;95.80;;;;;;5016542;28;20034;-31
2023/06/15 08:14:39;;;;;;;3.60;2.80;;;25.10;95.40;;;;;;5016542;28;20040;-35
2023/06/15 08:17:05;;;;;;;11.45;3.35;;;24.90;96.00;;;;;;5016566;28;20064;-34
2023/06/15 08:19:31;;;;;;;5.60;2.30;;;24.80;95.50;;;;;;5016384;28;20030;-35
2023/06/15 08:21:56;;;;;;;3.97;2.33;;;25.00;95.30;;;;;;5016360;28;20076;-32
2023/06/15 08:24:22;;;;;;;5.53;2.83;;;25.00;95.60;;;;;;5016263;28;20180;-33
2023/06/15 08:26:52;;;;;;;7.63;2.38;;;25.10;95.10;;;;;;5015687;28;20034;-37
2023/06/15 08:29:18;;;;;;;5.30;2.55;;;25.10;95.50;;;;;;5016255;28;20030;-36
2023/06/15 08:31:43;;;;;;;3.10;2.40;;;25.80;94.70;;;;;;5016322;28;20030;-35
2023/06/15 08:34:10;;;;;;;3.40;2.50;;;26.30;94.00;;;;;;5016297;28;20029;-32
2023/06/15 08:36:37;;;;;;;8.35;3.03;;;26.60;93.20;;;;;;5016450;28;20498;-34
2023/06/15 08:39:08;;;;;;;5.85;2.70;;;26.90;93.20;;;;;;5016007;28;20034;-32
2023/06/15 08:41:36;;;;;;;3.85;1.90;;;26.80;92.80;;;;;;5016042;28;20088;-35
2023/06/15 08:44:03;;;;;;;3.00;2.40;;;27.00;92.70;;;;;;5010883;28;20035;-33
2023/06/15 08:46:29;;;;;;;5.10;2.90;;;27.50;92.00;;;;;;4996187;28;20503;-33
2023/06/15 08:48:56;;;;;;;4.63;2.22;;;27.40;91.60;;;;;;4996390;28;20045;-30
2023/06/15 08:51:23;;;;;;;5.10;2.25;;;27.40;91.80;;;;;;4996296;28;20080;-30
2023/06/15 08:53:50;;;;;;;5.47;2.07;;;27.30;91.50;;;;;;4996298;28;20084;-34
2023/06/15 08:56:15;;;;;;;;;;;27.30;91.30;;;;;;4996624;28;20022;-36
2023/06/15 08:58:49;;;;;;;8.20;2.70;;;27.50;91.60;;;;;;4996147;28;19921;-37
2023/06/15 09:01:18;;;;;;;7.00;2.58;;;27.30;91.40;;;;;;5002161;28;20046;-31
2023/06/15 09:03:45;;;;;;;4.90;1.95;;;27.40;91.80;;;;;;5015760;28;20101;-37
2023/06/15 09:06:11;;;;;;;3.22;2.42;;;27.50;92.20;;;;;;5015670;28;20072;-33
2023/06/15 09:08:36;;;;;;;9.60;3.20;;;27.20;92.10;;;;;;5015613;28;20038;-34
2023/06/15 09:11:06;;;;;;;3.97;1.98;;;27.10;92.50;;;;;;5015579;28;20029;-35
2023/06/15 09:13:35;;;;;;;2.97;2.38;;;27.10;92.70;;;;;;5015494;28;20026;-37
2023/06/15 09:16:02;;;;;;;3.42;3.10;;;27.20;92.90;;;;;;5015560;28;20030;-31
2023/06/15 09:18:28;;;;;;;;;;;27.10;93.00;;;;;;5015180;28;20033;-31
2023/06/15 09:20:59;;;;;;;3.50;2.60;;;26.80;93.40;;;;;;5015296;28;19996;-34
2023/06/15 09:23:25;;;;;;;7.25;2.22;;;26.40;93.20;;;;;;5015545;28;20160;-32
2023/06/15 09:25:52;;;;;;;7.15;2.45;;;26.10;92.90;;;;;;5013979;28;20498;-37
2023/06/15 09:28:22;;;;;;;;;;;25.90;92.60;;;;;;5015903;28;20034;-32
2023/06/15 09:30:53;;;;;;;3.80;2.28;;;25.70;93.00;;;;;;5015401;28;19913;-36
2023/06/15 09:33:20;;;;;;;7.28;2.40;;;25.70;93.40;;;;;;5014286;28;20474;-33
2023/06/15 09:36:05;;;;;;;8.52;2.35;;;25.60;93.50;;;;;;5014228;28;20030;-31
2023/06/15 09:38:41;;;;;;;4.95;2.60;;;25.40;93.50;;;;;;5013848;28;20121;-33
2023/06/15 09:41:07;;;;;;;5.00;2.25;;;25.40;93.20;;;;;;5014973;28;20482;-33
2023/06/15 09:43:34;;;;;;;5.93;2.37;;;25.40;93.60;;;;;;5014934;28;20033;-35
2023/06/15 09:46:01;;;;;;;2.67;1.90;;;25.40;93.50;;;;;;5013547;28;20061;-32
2023/06/15 09:48:30;;;;;;;2.78;2.55;;;25.30;93.30;;;;;;5014840;28;20072;-32
2023/06/15 09:51:01;;;;;;;2.10;1.80;;;25.40;93.50;;;;;;5012946;28;20386;-34
2023/06/15 09:53:30;;;;;;;3.53;1.88;;;25.50;93.30;;;;;;5016676;28;20013;-34
2023/06/15 09:55:57;;;;;;;4.53;2.55;;;25.60;93.10;;;;;;5034346;28;20076;-34
2023/06/15 09:58:23;;;;;;;3.47;2.20;;;25.60;92.80;;;;;;5034210;28;20482;-50
2023/06/15 10:00:49;;;;;;;2.28;2.00;;;25.70;92.70;;;;;;5034095;28;20050;-36
2023/06/15 10:03:22;;;;;;;2.60;2.00;;;25.80;92.70;;;;;;5034436;28;20029;-33
2023/06/15 10:05:54;;;;;;;5.80;2.63;;;25.80;92.10;;;;;;5034321;28;20275;-31
2023/06/15 10:08:24;;;;;;;5.18;2.78;;;25.70;91.80;;;;;;5019708;28;20022;-39
2023/06/15 10:10:51;;;;;;;4.45;2.20;;;25.80;92.30;;;;;;5009447;28;20053;-41
2023/06/15 10:13:29;;;;;;;3.47;2.25;;;26.10;92.00;;;;;;5010154;28;20033;-36
2023/06/15 10:15:57;;;;;;;10.05;2.17;;;26.30;91.50;;;;;;5007606;28;20549;-39
2023/06/15 10:18:25;;;;;;;2.67;1.83;;;26.30;91.00;;;;;;5014167;28;20026;-33
2023/06/15 10:20:53;;;;;;;9.70;4.00;;;26.20;90.90;;;;;;5014426;28;20026;-35
2023/06/15 10:23:27;;;;;;;7.85;3.25;;;26.20;90.50;;;;;;5014135;28;20488;-47
2023/06/15 10:25:55;;;;;;;7.57;2.13;;;26.30;90.60;;;;;;5013708;28;20598;-34
2023/06/15 10:28:25;;;;;;;3.45;2.13;;;26.40;90.10;;;;;;5014106;28;20022;-38
2023/06/15 10:31:04;;;;;;;6.70;2.08;;;26.60;89.70;;;;;;5014166;28;20113;-33
2023/06/15 10:33:49;;;;;;;2.17;1.67;;;26.60;88.90;;;;;;5013336;28;20092;-32
2023/06/15 10:36:22;;;;;;;5.40;1.95;;;26.90;89.40;;;;;;4999826;28;20029;-39
2023/06/15 10:39:16;;;;;;;2.25;2.03;;;27.00;88.90;;;;;;5005010;28;20083;-31
2023/06/15 10:41:45;;;;;;;2.55;2.17;;;26.90;87.60;;;;;;5014073;28;20041;-37
2023/06/15 10:44:15;;;;;;;4.10;1.90;;;26.90;88.50;;;;;;5010811;28;20018;-31
2023/06/15 10:46:41;;;;;;;6.60;2.00;;;27.10;88.80;;;;;;5015708;28;20022;-42
2023/06/15 10:49:09;;;;;;;3.13;1.98;;;27.40;87.10;;;;;;5013586;28;20026;-31
2023/06/15 10:51:50;;;;;;;2.95;1.83;;;27.40;87.30;;;;;;4998976;28;20038;-35
2023/06/15 10:54:25;;;;;;;2.85;2.00;;;27.20;86.50;;;;;;5009720;28;20029;-37
2023/06/15 10:56:58;;;;;;;4.80;2.08;;;27.30;87.00;;;;;;5016667;28;20071;-31
2023/06/15 10:59:36;;;;;;;4.85;2.00;;;27.20;87.40;;;;;;5033265;28;20024;-36
2023/06/15 11:02:01;;;;;;;3.85;1.70;;;27.20;86.80;;;;;;5033155;28;20071;-30
2023/06/15 11:04:31;;;;;;;2.30;1.65;;;27.10;87.00;;;;;;5033276;28;20029;-35
2023/06/15 11:07:02;;;;;;;1.60;1.50;;;27.20;87.70;;;;;;5033164;28;20049;-34
2023/06/15 11:09:35;;;;;;;4.47;2.03;;;27.10;85.90;;;;;;5033159;28;20033;-31
2023/06/15 11:12:01;;;;;;;2.75;1.75;;;26.90;86.60;;;;;;5025474;28;20034;-34
2023/06/15 11:14:26;;;;;;;10.85;3.35;;;26.80;86.90;;;;;;5013727;28;20537;-32
2023/06/15 11:17:06;;;;;;;4.18;1.73;;;26.60;87.00;;;;;;5013596;28;20474;-34
2023/06/15 11:19:39;;;;;;;5.72;1.95;;;26.30;86.60;;;;;;5012932;28;20054;-32
2023/06/15 11:22:06;;;;;;;6.28;1.80;;;26.00;88.40;;;;;;4993724;28;20042;-33
2023/06/15 11:24:37;;;;;;;6.55;2.72;;;25.70;87.60;;;;;;4993367;28;20089;-33
2023/06/15 11:27:09;;;;;;;7.30;1.80;;;25.70;87.40;;;;;;4993855;28;20026;-34
2023/06/15 11:29:41;;;;;;;2.30;1.77;;;26.00;87.50;;;;;;5010697;28;20478;-33
2023/06/15 11:32:09;;;;;;;3.00;2.28;;;26.20;86.20;;;;;;5032786;28;20036;-33
2023/06/15 11:34:36;;;;;;;3.13;1.77;;;26.30;86.10;;;;;;5031558;28;20100;-33
2023/06/15 11:37:03;;;;;;;2.08;1.80;;;26.60;85.50;;;;;;5032834;28;20083;-35
2023/06/15 11:39:30;;;;;;;3.78;1.80;;;26.60;88.20;;;;;;5032935;28;20044;-37
2023/06/15 11:41:57;;;;;;;1.48;1.38;;;26.50;88.00;;;;;;5031911;28;20390;-31
2023/06/15 11:44:25;;;;;;;6.43;2.08;;;26.40;89.30;;;;;;5032930;28;20082;-35
2023/06/15 11:47:01;;;;;;;3.05;2.13;;;26.40;88.40;;;;;;5032680;28;20478;-33
2023/06/15 11:49:37;;;;;;;3.28;1.80;;;26.30;87.80;;;;;;5030415;28;20109;-32
2023/06/15 11:52:05;;;;;;;2.27;1.67;;;26.30;86.30;;;;;;5028902;28;20441;-38
2023/06/15 11:54:31;;;;;;;6.07;2.33;;;26.30;87.00;;;;;;5032646;28;20029;-32
2023/06/15 11:56:57;;;;;;;2.88;1.63;;;26.40;87.50;;;;;;5030017;28;20159;-36
2023/06/15 11:59:24;;;;;;;5.45;1.90;;;26.50;87.90;;;;;;5032448;28;20030;-34
2023/06/15 12:01:50;;;;;;;6.07;1.75;;;26.60;87.80;;;;;;5030601;28;20103;-40
2023/06/15 12:04:16;;;;;;;4.82;1.90;;;26.40;87.80;;;;;;5032489;28;20120;-32
2023/06/15 12:06:48;;;;;;;4.13;1.90;;;26.50;89.50;;;;;;5032544;28;20033;-41
2023/06/15 12:09:19;;;;;;;2.70;1.88;;;26.60;90.10;;;;;;5032715;28;20029;-41
2023/06/15 12:11:45;;;;;;;2.92;2.05;;;26.40;90.10;;;;;;5030153;28;20028;-40
2023/06/15 12:14:20;;;;;;;3.67;1.67;;;26.20;90.10;;;;;;5029598;28;20014;-42
2023/06/15 12:16:50;;;;;;;3.88;1.77;;;26.20;91.10;;;;;;5011907;28;20434;-42
2023/06/15 12:19:17;;;;;;;4.30;2.05;;;26.10;90.40;;;;;;5010302;28;20121;-42
2023/06/15 12:21:44;;;;;;;2.10;1.80;;;26.00;90.70;;;;;;5012840;28;20054;-41
2023/06/15 12:24:18;;;;;;;4.38;2.08;;;26.10;91.10;;;;;;5011338;28;20030;-41
2023/06/15 12:26:51;;;;;;;12.60;2.05;;;26.10;91.20;;;;;;5012496;28;20033;-42
2023/06/15 12:29:19;;;;;;;1.92;1.55;;;26.20;90.90;;;;;;5012144;28;20037;-41
2023/06/15 12:31:55;;;;;;;6.75;2.40;;;26.40;89.70;;;;;;5014425;28;20434;-34
2023/06/15 12:34:24;;;;;;;1.95;1.30;;;26.50;90.60;;;;;;5012789;28;20524;-33
2023/06/15 12:36:50;;;;;;;5.57;1.90;;;26.60;90.10;;;;;;5014519;28;20041;-36
2023/06/15 12:39:18;;;;;;;4.45;1.88;;;26.40;89.10;;;;;;5014928;28;20478;-39
2023/06/15 12:41:44;;;;;;;6.40;1.98;;;26.30;89.60;;;;;;5012954;28;20433;-34
2023/06/15 12:44:10;;;;;;;2.13;1.80;;;26.40;89.50;;;;;;5019357;28;20100;-34
2023/06/15 12:46:38;;;;;;;1.75;1.65;;;26.40;89.50;;;;;;5015601;28;20029;-32
2023/06/15 12:49:05;;;;;;;6.97;1.90;;;26.60;90.00;;;;;;5015146;28;20036;-33